Middleton, Canada
Current Conditions -  °F | °C
As of 9:00 PM on Saturday 22 Nov 2014 (Local Time) from CYZX Reporting Station
Overcast Overcast  
Wind Chill: 30°   Ceiling: 8500
Heat Index: 39°   Visibility: 15mi
Dew Point: 34°   Wind: 16mph
Humidity: 81%   Direction: 230°SW
Pressure: 29.92"   Gusts: 22mph
Location:  44.94°N, 65.07°W
Report Text: CYZX 230100Z 23014G19KT 15SM FEW030 FEW051 OVC085 04/01 A2992 RMK SC1SC2AC6 WNDY HILL 24013G19KT SLP134
Loading
Personal Weather Stations






























Interactive Weather Map New forecast layout! Learn more

10-Day Weather Forecast

Advertisements
Track Severe Weather on mobile